Doris — 9HA2632 — position and weather

sailwx.info

Track history (hours):
 
Tides and Currents Weather Stations Pressure Air Temp Water Temp Dewpoint Dewpoint Depression Visibility Wind Speed Wind Dir Waves Ship Positions

Doris

Last reported at 2016-Dec-25 17:18 UTC. Time now 2017-Jan-20 11:53 UTC.
Position N 37°30' E 123°09'.
Warning: this ship's position is 25 days out of date.

Length 182 m; draft 9.9 m.

Type: Cargo ship. MMSI: 215080000.

Date/timePositionNaut miles runAvg speedWind from/ knotsBaromVisibWave heightAir tempDewpointWater temp
2016-Dec-25 17:18N 37°30' E 123°09'2613.6
2016-Dec-25 15:25N 37°43' E 122°42'8213.4
2016-Dec-25 09:19N 38°25' E 121°12'1114.4
2016-Dec-25 08:33N 38°31' E 121°00'1414.4
2016-Dec-25 07:33N 38°35' E 120°43'8513.6
2016-Dec-25 01:20N 38°46' E 118°55'1012.0
2016-Dec-25 00:30N 38°48' E 118°43'1312.7
2016-Dec-24 23:28N 38°49' E 118°26'1112.0
2016-Dec-24 22:33N 38°51' E 118°12'10 9.9
2016-Dec-24 21:33N 38°56' E 118°01'10 9.8
2016-Dec-24 20:33N 38°58' E 117°49'0 0.2
2016-Dec-24 19:31N 38°58' E 117°48'0 0.0
2016-Dec-24 18:19N 38°58' E 117°48'0 0.0
2016-Dec-24 17:31N 38°58' E 117°48'0 0.0
2016-Dec-24 16:31N 38°58' E 117°48'0 0.0
2016-Dec-24 15:25N 38°58' E 117°48'0 0.0
2016-Dec-24 14:31N 38°58' E 117°48'0 0.0
2016-Dec-24 13:31N 38°58' E 117°48'0 0.0
2016-Dec-24 12:31N 38°58' E 117°48'0 0.0
2016-Dec-24 09:19N 38°58' E 117°48'0 0.0
2016-Dec-24 08:19N 38°58' E 117°48'0 0.0
2016-Dec-24 07:19N 38°58' E 117°48'0 0.0
2016-Dec-24 06:31N 38°58' E 117°48'0 0.0
2016-Dec-24 05:31N 38°58' E 117°48'0 0.0
2016-Dec-24 04:31N 38°58' E 117°48'0 0.0
2016-Dec-24 03:31N 38°58' E 117°48'0 0.0
2016-Dec-24 02:31N 38°58' E 117°48'0 0.0
2016-Dec-24 01:31N 38°58' E 117°48'0 0.0
2016-Dec-24 00:31N 38°58' E 117°48'0 0.0
2016-Dec-23 23:31N 38°58' E 117°48'1 0.6
2016-Dec-23 22:33N 38°58' E 117°49'8 8.4
2016-Dec-23 21:33N 38°57' E 117°60'1 1.4
2016-Dec-23 20:32N 38°58' E 118°01'0 0.0
2016-Dec-23 19:32N 38°58' E 118°01'0 0.0
2016-Dec-23 18:32N 38°58' E 118°01'0 0.0
2016-Dec-23 17:32N 38°58' E 118°01'0 0.1
2016-Dec-23 14:32N 38°58' E 118°01'0 0.0
2016-Dec-23 12:32N 38°58' E 118°01'0 0.0
2016-Dec-23 11:32N 38°58' E 118°01'0 0.0
2016-Dec-23 10:26N 38°58' E 118°01'0 0.1
2016-Dec-23 08:26N 38°58' E 118°01'7 3.7
2016-Dec-23 06:26N 38°54' E 118°10'1 0.3
2016-Dec-23 01:23N 38°54' E 118°11'0 0.0
2016-Dec-23 00:29N 38°54' E 118°11'0 0.0
2016-Dec-22 23:23N 38°54' E 118°11'0 0.0
2016-Dec-22 22:22N 38°54' E 118°11'0 0.0
2016-Dec-22 20:28N 38°54' E 118°12'0 0.0
2016-Dec-22 19:29N 38°54' E 118°12'0 0.0
2016-Dec-22 18:28N 38°54' E 118°12'0 0.0
2016-Dec-22 17:16N 38°54' E 118°12'0 0.0
2016-Dec-22 15:10N 38°54' E 118°12'0 0.0
2016-Dec-22 13:28N 38°54' E 118°11'0 0.0
2016-Dec-22 10:04N 38°54' E 118°12'0 0.1
2016-Dec-22 09:22N 38°54' E 118°12'0 0.1
2016-Dec-22 08:29N 38°54' E 118°12'123 4.2
2016-Dec-21 03:24N 38°40' E 120°48'1113.1
2016-Dec-21 02:32N 38°34' E 121°01'1413.8
2016-Dec-21 01:32N 38°27' E 121°16'1414.1
2016-Dec-21 00:32N 38°20' E 121°31'2914.4
2016-Dec-20 22:32N 38°05' E 122°03'2814.2
2016-Dec-20 20:33N 37°51' E 122°34'  
Track history (hours):
 
Tides and Currents Weather Stations Pressure Air Temp Water Temp Dewpoint Dewpoint Depression Visibility Wind Speed Wind Dir Waves Ship Positions

Doris

Last reported at 2016-Dec-25 17:18 UTC. Time now 2017-Jan-20 11:53 UTC.
Position N 37°30' E 123°09'.
Warning: this ship's position is 25 days out of date.

Length 182 m; draft 9.9 m.

Type: Cargo ship. MMSI: 215080000.

Date/timePositionNaut miles runAvg speedWind from/ knotsBaromVisibWave heightAir tempDewpointWater temp
2016-Dec-25 17:18N 37°30' E 123°09'2613.6
2016-Dec-25 15:25N 37°43' E 122°42'8213.4
2016-Dec-25 09:19N 38°25' E 121°12'1114.4
2016-Dec-25 08:33N 38°31' E 121°00'1414.4
2016-Dec-25 07:33N 38°35' E 120°43'8513.6
2016-Dec-25 01:20N 38°46' E 118°55'1012.0
2016-Dec-25 00:30N 38°48' E 118°43'1312.7
2016-Dec-24 23:28N 38°49' E 118°26'1112.0
2016-Dec-24 22:33N 38°51' E 118°12'10 9.9
2016-Dec-24 21:33N 38°56' E 118°01'10 9.8
2016-Dec-24 20:33N 38°58' E 117°49'0 0.2
2016-Dec-24 19:31N 38°58' E 117°48'0 0.0
2016-Dec-24 18:19N 38°58' E 117°48'0 0.0
2016-Dec-24 17:31N 38°58' E 117°48'0 0.0
2016-Dec-24 16:31N 38°58' E 117°48'0 0.0
2016-Dec-24 15:25N 38°58' E 117°48'0 0.0
2016-Dec-24 14:31N 38°58' E 117°48'0 0.0
2016-Dec-24 13:31N 38°58' E 117°48'0 0.0
2016-Dec-24 12:31N 38°58' E 117°48'0 0.0
2016-Dec-24 09:19N 38°58' E 117°48'0 0.0
2016-Dec-24 08:19N 38°58' E 117°48'0 0.0
2016-Dec-24 07:19N 38°58' E 117°48'0 0.0
2016-Dec-24 06:31N 38°58' E 117°48'0 0.0
2016-Dec-24 05:31N 38°58' E 117°48'0 0.0
2016-Dec-24 04:31N 38°58' E 117°48'0 0.0
2016-Dec-24 03:31N 38°58' E 117°48'0 0.0
2016-Dec-24 02:31N 38°58' E 117°48'0 0.0
2016-Dec-24 01:31N 38°58' E 117°48'0 0.0
2016-Dec-24 00:31N 38°58' E 117°48'0 0.0
2016-Dec-23 23:31N 38°58' E 117°48'1 0.6
2016-Dec-23 22:33N 38°58' E 117°49'8 8.4
2016-Dec-23 21:33N 38°57' E 117°60'1 1.4
2016-Dec-23 20:32N 38°58' E 118°01'0 0.0
2016-Dec-23 19:32N 38°58' E 118°01'0 0.0
2016-Dec-23 18:32N 38°58' E 118°01'0 0.0
2016-Dec-23 17:32N 38°58' E 118°01'0 0.1
2016-Dec-23 14:32N 38°58' E 118°01'0 0.0
2016-Dec-23 12:32N 38°58' E 118°01'0 0.0
2016-Dec-23 11:32N 38°58' E 118°01'0 0.0
2016-Dec-23 10:26N 38°58' E 118°01'0 0.1
2016-Dec-23 08:26N 38°58' E 118°01'7 3.7
2016-Dec-23 06:26N 38°54' E 118°10'1 0.3
2016-Dec-23 01:23N 38°54' E 118°11'0 0.0
2016-Dec-23 00:29N 38°54' E 118°11'0 0.0
2016-Dec-22 23:23N 38°54' E 118°11'0 0.0
2016-Dec-22 22:22N 38°54' E 118°11'0 0.0
2016-Dec-22 20:28N 38°54' E 118°12'0 0.0
2016-Dec-22 19:29N 38°54' E 118°12'0 0.0
2016-Dec-22 18:28N 38°54' E 118°12'0 0.0
2016-Dec-22 17:16N 38°54' E 118°12'0 0.0
2016-Dec-22 15:10N 38°54' E 118°12'0 0.0
2016-Dec-22 13:28N 38°54' E 118°11'0 0.0
2016-Dec-22 10:04N 38°54' E 118°12'0 0.1
2016-Dec-22 09:22N 38°54' E 118°12'0 0.1
2016-Dec-22 08:29N 38°54' E 118°12'123 4.2
2016-Dec-21 03:24N 38°40' E 120°48'1113.1
2016-Dec-21 02:32N 38°34' E 121°01'1413.8
2016-Dec-21 01:32N 38°27' E 121°16'1414.1
2016-Dec-21 00:32N 38°20' E 121°31'2914.4
2016-Dec-20 22:32N 38°05' E 122°03'2814.2
2016-Dec-20 20:33N 37°51' E 122°34'  

Dump ship's entire track history